sensor_id;sensor_type;location;lat;lon;timestamp;P1;durP1;ratioP1;P2;durP2;ratioP2
74926;SDS011;63488;48.092;-1.640;2023-04-03T00:02:06;9.73;;;2.65;;
74926;SDS011;63488;48.092;-1.640;2023-04-03T00:04:32;8.45;;;2.60;;
74926;SDS011;63488;48.092;-1.640;2023-04-03T00:06:57;8.75;;;2.35;;
74926;SDS011;63488;48.092;-1.640;2023-04-03T00:09:22;10.20;;;2.65;;
74926;SDS011;63488;48.092;-1.640;2023-04-03T00:11:47;7.70;;;2.15;;
74926;SDS011;63488;48.092;-1.640;2023-04-03T00:14:13;7.60;;;3.00;;
74926;SDS011;63488;48.092;-1.640;2023-04-03T00:16:38;7.53;;;2.42;;
74926;SDS011;63488;48.092;-1.640;2023-04-03T00:19:03;8.30;;;2.45;;
74926;SDS011;63488;48.092;-1.640;2023-04-03T00:21:29;9.75;;;2.80;;
74926;SDS011;63488;48.092;-1.640;2023-04-03T00:23:54;9.90;;;2.45;;
74926;SDS011;63488;48.092;-1.640;2023-04-03T00:26:20;7.32;;;2.92;;
74926;SDS011;63488;48.092;-1.640;2023-04-03T00:28:45;8.60;;;2.55;;
74926;SDS011;63488;48.092;-1.640;2023-04-03T00:31:11;8.32;;;2.75;;
74926;SDS011;63488;48.092;-1.640;2023-04-03T00:33:38;10.30;;;2.90;;
74926;SDS011;63488;48.092;-1.640;2023-04-03T00:36:08;9.60;;;2.33;;
74926;SDS011;63488;48.092;-1.640;2023-04-03T00:38:34;7.38;;;2.42;;
74926;SDS011;63488;48.092;-1.640;2023-04-03T00:40:59;8.15;;;2.45;;
74926;SDS011;63488;48.092;-1.640;2023-04-03T00:43:25;8.38;;;2.45;;
74926;SDS011;63488;48.092;-1.640;2023-04-03T00:45:52;9.05;;;2.38;;
74926;SDS011;63488;48.092;-1.640;2023-04-03T00:48:26;8.57;;;2.60;;
74926;SDS011;63488;48.092;-1.640;2023-04-03T00:50:53;12.77;;;2.90;;
74926;SDS011;63488;48.092;-1.640;2023-04-03T00:53:21;10.52;;;2.47;;
74926;SDS011;63488;48.092;-1.640;2023-04-03T00:55:48;9.57;;;2.17;;
74926;SDS011;63488;48.092;-1.640;2023-04-03T00:58:15;9.27;;;2.70;;
74926;SDS011;63488;48.092;-1.640;2023-04-03T01:00:42;8.25;;;2.38;;
74926;SDS011;63488;48.092;-1.640;2023-04-03T01:03:09;10.68;;;2.47;;
74926;SDS011;63488;48.092;-1.640;2023-04-03T01:05:34;7.88;;;2.05;;
74926;SDS011;63488;48.092;-1.640;2023-04-03T01:08:00;8.35;;;2.53;;
74926;SDS011;63488;48.092;-1.640;2023-04-03T01:10:25;7.00;;;2.38;;
74926;SDS011;63488;48.092;-1.640;2023-04-03T01:12:51;6.70;;;2.08;;
74926;SDS011;63488;48.092;-1.640;2023-04-03T01:15:20;13.13;;;2.78;;
74926;SDS011;63488;48.092;-1.640;2023-04-03T01:17:54;7.95;;;2.45;;
74926;SDS011;63488;48.092;-1.640;2023-04-03T01:25:51;8.57;;;2.13;;
74926;SDS011;63488;48.092;-1.640;2023-04-03T01:28:18;7.78;;;2.13;;
74926;SDS011;63488;48.092;-1.640;2023-04-03T01:30:47;10.45;;;2.28;;
74926;SDS011;63488;48.092;-1.640;2023-04-03T01:33:14;11.60;;;2.50;;
74926;SDS011;63488;48.092;-1.640;2023-04-03T01:35:39;9.70;;;2.55;;
74926;SDS011;63488;48.092;-1.640;2023-04-03T01:38:05;8.50;;;2.10;;
74926;SDS011;63488;48.092;-1.640;2023-04-03T01:40:31;7.50;;;2.13;;
74926;SDS011;63488;48.092;-1.640;2023-04-03T01:42:56;9.32;;;2.45;;
74926;SDS011;63488;48.092;-1.640;2023-04-03T01:45:21;9.98;;;2.40;;
74926;SDS011;63488;48.092;-1.640;2023-04-03T01:47:47;9.38;;;2.42;;
74926;SDS011;63488;48.092;-1.640;2023-04-03T01:50:12;10.40;;;2.38;;
74926;SDS011;63488;48.092;-1.640;2023-04-03T01:52:37;8.57;;;2.28;;
74926;SDS011;63488;48.092;-1.640;2023-04-03T01:55:03;9.30;;;2.60;;
74926;SDS011;63488;48.092;-1.640;2023-04-03T01:57:28;9.20;;;2.50;;
74926;SDS011;63488;48.092;-1.640;2023-04-03T01:59:53;10.52;;;2.67;;
74926;SDS011;63488;48.092;-1.640;2023-04-03T02:02:19;11.15;;;2.45;;
74926;SDS011;63488;48.092;-1.640;2023-04-03T02:04:45;8.38;;;2.45;;
74926;SDS011;63488;48.092;-1.640;2023-04-03T02:07:11;8.43;;;2.25;;
74926;SDS011;63488;48.092;-1.640;2023-04-03T02:09:36;9.48;;;2.25;;
74926;SDS011;63488;48.092;-1.640;2023-04-03T02:12:01;8.50;;;2.13;;
74926;SDS011;63488;48.092;-1.640;2023-04-03T02:14:27;10.15;;;2.70;;
74926;SDS011;63488;48.092;-1.640;2023-04-03T02:16:52;10.68;;;2.13;;
74926;SDS011;63488;48.092;-1.640;2023-04-03T02:19:18;10.57;;;2.70;;
74926;SDS011;63488;48.092;-1.640;2023-04-03T02:21:43;8.20;;;2.40;;
74926;SDS011;63488;48.092;-1.640;2023-04-03T02:24:08;10.45;;;2.83;;
74926;SDS011;63488;48.092;-1.640;2023-04-03T02:26:34;11.38;;;2.30;;
74926;SDS011;63488;48.092;-1.640;2023-04-03T02:28:59;10.75;;;2.53;;
74926;SDS011;63488;48.092;-1.640;2023-04-03T02:31:25;11.45;;;2.65;;
74926;SDS011;63488;48.092;-1.640;2023-04-03T02:33:50;9.57;;;2.40;;
74926;SDS011;63488;48.092;-1.640;2023-04-03T02:36:15;10.65;;;2.33;;
74926;SDS011;63488;48.092;-1.640;2023-04-03T02:38:41;9.95;;;2.30;;
74926;SDS011;63488;48.092;-1.640;2023-04-03T02:41:07;13.35;;;3.08;;
74926;SDS011;63488;48.092;-1.640;2023-04-03T02:43:33;8.60;;;2.28;;
74926;SDS011;63488;48.092;-1.640;2023-04-03T02:45:58;11.32;;;2.75;;
74926;SDS011;63488;48.092;-1.640;2023-04-03T02:48:24;9.05;;;2.40;;
74926;SDS011;63488;48.092;-1.640;2023-04-03T02:50:49;11.32;;;2.63;;
74926;SDS011;63488;48.092;-1.640;2023-04-03T02:53:15;9.90;;;2.50;;
74926;SDS011;63488;48.092;-1.640;2023-04-03T02:55:40;9.52;;;2.13;;
74926;SDS011;63488;48.092;-1.640;2023-04-03T02:58:06;7.13;;;2.35;;
74926;SDS011;63488;48.092;-1.640;2023-04-03T03:00:31;9.18;;;2.45;;
74926;SDS011;63488;48.092;-1.640;2023-04-03T03:02:56;7.45;;;2.20;;
74926;SDS011;63488;48.092;-1.640;2023-04-03T03:05:22;10.68;;;2.35;;
74926;SDS011;63488;48.092;-1.640;2023-04-03T03:07:47;6.80;;;2.30;;
74926;SDS011;63488;48.092;-1.640;2023-04-03T03:10:13;7.38;;;2.25;;
74926;SDS011;63488;48.092;-1.640;2023-04-03T03:12:38;10.82;;;2.53;;
74926;SDS011;63488;48.092;-1.640;2023-04-03T03:15:03;14.95;;;2.70;;
74926;SDS011;63488;48.092;-1.640;2023-04-03T03:17:29;11.27;;;2.42;;
74926;SDS011;63488;48.092;-1.640;2023-04-03T03:19:55;9.48;;;2.92;;
74926;SDS011;63488;48.092;-1.640;2023-04-03T03:22:20;10.13;;;2.25;;
74926;SDS011;63488;48.092;-1.640;2023-04-03T03:24:45;6.68;;;1.90;;
74926;SDS011;63488;48.092;-1.640;2023-04-03T03:27:11;7.65;;;2.38;;
74926;SDS011;63488;48.092;-1.640;2023-04-03T03:29:37;10.75;;;2.45;;
74926;SDS011;63488;48.092;-1.640;2023-04-03T03:32:02;8.65;;;2.20;;
74926;SDS011;63488;48.092;-1.640;2023-04-03T03:34:28;9.65;;;2.60;;
74926;SDS011;63488;48.092;-1.640;2023-04-03T03:36:53;13.38;;;2.40;;
74926;SDS011;63488;48.092;-1.640;2023-04-03T03:39:18;9.98;;;2.10;;
74926;SDS011;63488;48.092;-1.640;2023-04-03T03:41:44;10.48;;;2.63;;
74926;SDS011;63488;48.092;-1.640;2023-04-03T03:44:09;14.45;;;2.58;;
74926;SDS011;63488;48.092;-1.640;2023-04-03T03:46:35;7.50;;;2.17;;
74926;SDS011;63488;48.092;-1.640;2023-04-03T03:49:00;9.52;;;2.15;;
74926;SDS011;63488;48.092;-1.640;2023-04-03T03:51:25;12.63;;;2.70;;
74926;SDS011;63488;48.092;-1.640;2023-04-03T03:53:51;14.20;;;2.47;;
74926;SDS011;63488;48.092;-1.640;2023-04-03T03:56:16;8.10;;;2.33;;
74926;SDS011;63488;48.092;-1.640;2023-04-03T03:58:41;8.30;;;2.00;;
74926;SDS011;63488;48.092;-1.640;2023-04-03T04:01:07;12.52;;;2.50;;
74926;SDS011;63488;48.092;-1.640;2023-04-03T04:03:32;13.52;;;2.47;;
74926;SDS011;63488;48.092;-1.640;2023-04-03T04:05:58;6.57;;;2.20;;
74926;SDS011;63488;48.092;-1.640;2023-04-03T04:08:23;11.45;;;2.75;;
74926;SDS011;63488;48.092;-1.640;2023-04-03T04:10:48;12.35;;;2.47;;
74926;SDS011;63488;48.092;-1.640;2023-04-03T04:13:14;8.88;;;2.80;;
74926;SDS011;63488;48.092;-1.640;2023-04-03T04:15:39;8.98;;;2.28;;
74926;SDS011;63488;48.092;-1.640;2023-04-03T04:18:05;10.02;;;2.53;;
74926;SDS011;63488;48.092;-1.640;2023-04-03T04:20:30;12.02;;;2.30;;
74926;SDS011;63488;48.092;-1.640;2023-04-03T04:22:56;8.13;;;2.42;;
74926;SDS011;63488;48.092;-1.640;2023-04-03T04:25:21;7.38;;;2.40;;
74926;SDS011;63488;48.092;-1.640;2023-04-03T04:27:46;7.70;;;2.25;;
74926;SDS011;63488;48.092;-1.640;2023-04-03T04:30:12;9.60;;;2.33;;
74926;SDS011;63488;48.092;-1.640;2023-04-03T04:32:37;9.63;;;2.60;;
74926;SDS011;63488;48.092;-1.640;2023-04-03T04:35:03;7.88;;;1.92;;
74926;SDS011;63488;48.092;-1.640;2023-04-03T04:37:29;8.27;;;1.92;;
74926;SDS011;63488;48.092;-1.640;2023-04-03T04:39:54;9.27;;;2.17;;
74926;SDS011;63488;48.092;-1.640;2023-04-03T04:42:20;7.55;;;2.33;;
74926;SDS011;63488;48.092;-1.640;2023-04-03T04:44:45;8.73;;;1.80;;
74926;SDS011;63488;48.092;-1.640;2023-04-03T04:47:10;8.48;;;2.10;;
74926;SDS011;63488;48.092;-1.640;2023-04-03T04:49:36;7.68;;;1.90;;
74926;SDS011;63488;48.092;-1.640;2023-04-03T04:52:01;7.80;;;2.58;;
74926;SDS011;63488;48.092;-1.640;2023-04-03T04:54:26;7.60;;;2.30;;
74926;SDS011;63488;48.092;-1.640;2023-04-03T04:56:52;9.75;;;2.53;;
74926;SDS011;63488;48.092;-1.640;2023-04-03T04:59:17;9.23;;;2.35;;
74926;SDS011;63488;48.092;-1.640;2023-04-03T05:01:42;10.90;;;2.60;;
74926;SDS011;63488;48.092;-1.640;2023-04-03T05:04:08;9.30;;;2.83;;
74926;SDS011;63488;48.092;-1.640;2023-04-03T05:06:34;11.10;;;2.47;;
74926;SDS011;63488;48.092;-1.640;2023-04-03T05:09:00;8.82;;;2.20;;
74926;SDS011;63488;48.092;-1.640;2023-04-03T05:11:25;8.95;;;2.47;;
74926;SDS011;63488;48.092;-1.640;2023-04-03T05:13:51;6.72;;;2.33;;
74926;SDS011;63488;48.092;-1.640;2023-04-03T05:16:16;7.88;;;1.95;;
74926;SDS011;63488;48.092;-1.640;2023-04-03T05:18:41;6.93;;;1.98;;
74926;SDS011;63488;48.092;-1.640;2023-04-03T05:21:07;8.27;;;2.15;;
74926;SDS011;63488;48.092;-1.640;2023-04-03T05:23:32;10.85;;;2.08;;
74926;SDS011;63488;48.092;-1.640;2023-04-03T05:25:58;7.95;;;2.17;;
74926;SDS011;63488;48.092;-1.640;2023-04-03T05:28:23;7.68;;;1.77;;
74926;SDS011;63488;48.092;-1.640;2023-04-03T05:30:52;10.30;;;1.92;;
74926;SDS011;63488;48.092;-1.640;2023-04-03T05:35:44;9.33;;;2.30;;
74926;SDS011;63488;48.092;-1.640;2023-04-03T05:38:09;7.72;;;2.15;;
74926;SDS011;63488;48.092;-1.640;2023-04-03T05:40:35;7.18;;;2.35;;
74926;SDS011;63488;48.092;-1.640;2023-04-03T05:43:00;8.45;;;1.90;;
74926;SDS011;63488;48.092;-1.640;2023-04-03T05:45:25;8.57;;;1.98;;
74926;SDS011;63488;48.092;-1.640;2023-04-03T05:47:51;6.45;;;1.80;;
74926;SDS011;63488;48.092;-1.640;2023-04-03T05:50:16;9.90;;;2.40;;
74926;SDS011;63488;48.092;-1.640;2023-04-03T05:52:42;6.30;;;2.15;;
74926;SDS011;63488;48.092;-1.640;2023-04-03T05:55:09;8.25;;;2.10;;
74926;SDS011;63488;48.092;-1.640;2023-04-03T05:57:34;7.05;;;2.00;;
74926;SDS011;63488;48.092;-1.640;2023-04-03T05:59:59;9.00;;;2.03;;
74926;SDS011;63488;48.092;-1.640;2023-04-03T06:02:25;6.25;;;1.98;;
74926;SDS011;63488;48.092;-1.640;2023-04-03T06:04:51;11.43;;;2.40;;
74926;SDS011;63488;48.092;-1.640;2023-04-03T06:07:26;10.18;;;2.35;;
74926;SDS011;63488;48.092;-1.640;2023-04-03T06:09:53;6.20;;;2.47;;
74926;SDS011;63488;48.092;-1.640;2023-04-03T06:12:19;7.25;;;2.03;;
74926;SDS011;63488;48.092;-1.640;2023-04-03T06:14:44;6.07;;;1.88;;
74926;SDS011;63488;48.092;-1.640;2023-04-03T06:17:10;5.93;;;2.10;;
74926;SDS011;63488;48.092;-1.640;2023-04-03T06:19:37;7.38;;;2.08;;
74926;SDS011;63488;48.092;-1.640;2023-04-03T06:22:03;7.25;;;2.00;;
74926;SDS011;63488;48.092;-1.640;2023-04-03T06:24:28;8.38;;;2.03;;
74926;SDS011;63488;48.092;-1.640;2023-04-03T06:26:53;7.10;;;2.03;;
74926;SDS011;63488;48.092;-1.640;2023-04-03T06:29:19;6.80;;;1.92;;
74926;SDS011;63488;48.092;-1.640;2023-04-03T06:31:45;7.10;;;2.28;;
74926;SDS011;63488;48.092;-1.640;2023-04-03T06:34:11;8.13;;;2.17;;
74926;SDS011;63488;48.092;-1.640;2023-04-03T06:36:37;7.00;;;2.10;;
74926;SDS011;63488;48.092;-1.640;2023-04-03T06:39:02;8.63;;;2.70;;
74926;SDS011;63488;48.092;-1.640;2023-04-03T06:41:28;5.47;;;2.25;;
74926;SDS011;63488;48.092;-1.640;2023-04-03T06:43:53;6.65;;;2.50;;
74926;SDS011;63488;48.092;-1.640;2023-04-03T06:46:21;8.38;;;2.45;;
74926;SDS011;63488;48.092;-1.640;2023-04-03T06:48:47;5.25;;;2.33;;
74926;SDS011;63488;48.092;-1.640;2023-04-03T06:54:04;6.78;;;2.50;;
74926;SDS011;63488;48.092;-1.640;2023-04-03T06:56:29;6.78;;;2.40;;
74926;SDS011;63488;48.092;-1.640;2023-04-03T06:58:55;6.97;;;2.97;;
74926;SDS011;63488;48.092;-1.640;2023-04-03T07:01:22;7.00;;;2.80;;
74926;SDS011;63488;48.092;-1.640;2023-04-03T07:03:49;9.75;;;2.83;;
74926;SDS011;63488;48.092;-1.640;2023-04-03T07:06:15;5.63;;;2.47;;
74926;SDS011;63488;48.092;-1.640;2023-04-03T07:08:41;6.05;;;2.05;;
74926;SDS011;63488;48.092;-1.640;2023-04-03T07:11:07;7.25;;;2.72;;
74926;SDS011;63488;48.092;-1.640;2023-04-03T07:13:33;9.32;;;2.85;;
74926;SDS011;63488;48.092;-1.640;2023-04-03T07:15:58;6.18;;;2.30;;
74926;SDS011;63488;48.092;-1.640;2023-04-03T07:18:24;6.93;;;2.65;;
74926;SDS011;63488;48.092;-1.640;2023-04-03T07:20:49;5.72;;;2.47;;
74926;SDS011;63488;48.092;-1.640;2023-04-03T07:23:15;7.60;;;2.60;;
74926;SDS011;63488;48.092;-1.640;2023-04-03T07:25:44;6.68;;;2.78;;
74926;SDS011;63488;48.092;-1.640;2023-04-03T07:28:09;7.68;;;2.50;;
74926;SDS011;63488;48.092;-1.640;2023-04-03T07:30:41;6.97;;;2.40;;
74926;SDS011;63488;48.092;-1.640;2023-04-03T07:33:07;8.02;;;2.78;;
74926;SDS011;63488;48.092;-1.640;2023-04-03T07:35:32;6.75;;;2.60;;
74926;SDS011;63488;48.092;-1.640;2023-04-03T07:37:58;6.43;;;2.92;;
74926;SDS011;63488;48.092;-1.640;2023-04-03T07:40:26;6.75;;;2.85;;
74926;SDS011;63488;48.092;-1.640;2023-04-03T07:42:52;6.25;;;3.00;;
74926;SDS011;63488;48.092;-1.640;2023-04-03T07:45:17;7.88;;;3.22;;
74926;SDS011;63488;48.092;-1.640;2023-04-03T07:47:42;5.85;;;2.80;;
74926;SDS011;63488;48.092;-1.640;2023-04-03T07:50:08;6.18;;;3.00;;
74926;SDS011;63488;48.092;-1.640;2023-04-03T07:52:33;7.75;;;3.40;;
74926;SDS011;63488;48.092;-1.640;2023-04-03T07:54:58;5.82;;;2.97;;
74926;SDS011;63488;48.092;-1.640;2023-04-03T07:57:24;7.28;;;3.42;;
74926;SDS011;63488;48.092;-1.640;2023-04-03T07:59:50;10.75;;;3.63;;
74926;SDS011;63488;48.092;-1.640;2023-04-03T08:02:15;6.90;;;3.00;;
74926;SDS011;63488;48.092;-1.640;2023-04-03T08:04:40;6.20;;;3.03;;
74926;SDS011;63488;48.092;-1.640;2023-04-03T08:07:06;7.35;;;3.00;;
74926;SDS011;63488;48.092;-1.640;2023-04-03T08:09:31;8.55;;;3.08;;
74926;SDS011;63488;48.092;-1.640;2023-04-03T08:11:57;9.10;;;3.90;;
74926;SDS011;63488;48.092;-1.640;2023-04-03T08:14:22;8.32;;;3.33;;
74926;SDS011;63488;48.092;-1.640;2023-04-03T08:16:48;5.82;;;2.80;;
74926;SDS011;63488;48.092;-1.640;2023-04-03T08:19:13;7.75;;;3.33;;
74926;SDS011;63488;48.092;-1.640;2023-04-03T08:21:41;5.93;;;3.40;;
74926;SDS011;63488;48.092;-1.640;2023-04-03T08:24:07;8.07;;;3.20;;
74926;SDS011;63488;48.092;-1.640;2023-04-03T08:26:32;7.63;;;4.57;;
74926;SDS011;63488;48.092;-1.640;2023-04-03T08:28:57;10.07;;;3.30;;
74926;SDS011;63488;48.092;-1.640;2023-04-03T08:31:24;7.60;;;3.10;;
74926;SDS011;63488;48.092;-1.640;2023-04-03T08:33:49;6.65;;;3.00;;
74926;SDS011;63488;48.092;-1.640;2023-04-03T08:36:17;5.88;;;3.33;;
74926;SDS011;63488;48.092;-1.640;2023-04-03T08:38:42;7.47;;;3.35;;
74926;SDS011;63488;48.092;-1.640;2023-04-03T08:41:14;11.82;;;5.82;;
74926;SDS011;63488;48.092;-1.640;2023-04-03T08:43:56;5.88;;;3.80;;
74926;SDS011;63488;48.092;-1.640;2023-04-03T08:46:22;8.25;;;3.92;;
74926;SDS011;63488;48.092;-1.640;2023-04-03T08:48:49;8.38;;;4.20;;
74926;SDS011;63488;48.092;-1.640;2023-04-03T08:51:16;5.65;;;4.30;;
74926;SDS011;63488;48.092;-1.640;2023-04-03T08:54:04;8.30;;;4.35;;
74926;SDS011;63488;48.092;-1.640;2023-04-03T08:56:31;12.05;;;4.75;;
74926;SDS011;63488;48.092;-1.640;2023-04-03T08:58:59;10.88;;;5.10;;
74926;SDS011;63488;48.092;-1.640;2023-04-03T09:01:36;7.78;;;4.78;;
74926;SDS011;63488;48.092;-1.640;2023-04-03T09:04:05;8.05;;;4.65;;
74926;SDS011;63488;48.092;-1.640;2023-04-03T09:06:34;7.35;;;5.07;;
74926;SDS011;63488;48.092;-1.640;2023-04-03T09:09:12;8.00;;;5.40;;
74926;SDS011;63488;48.092;-1.640;2023-04-03T09:22:20;9.25;;;5.40;;
74926;SDS011;63488;48.092;-1.640;2023-04-03T09:24:47;9.77;;;5.40;;
74926;SDS011;63488;48.092;-1.640;2023-04-03T09:27:14;10.73;;;5.93;;
74926;SDS011;63488;48.092;-1.640;2023-04-03T09:29:41;8.85;;;5.43;;
74926;SDS011;63488;48.092;-1.640;2023-04-03T09:32:30;6.95;;;5.50;;
74926;SDS011;63488;48.092;-1.640;2023-04-03T09:35:41;8.38;;;5.82;;
74926;SDS011;63488;48.092;-1.640;2023-04-03T09:37:44;8.40;;;5.80;;
74926;SDS011;63488;48.092;-1.640;2023-04-03T09:42:51;9.98;;;6.28;;
74926;SDS011;63488;48.092;-1.640;2023-04-03T09:45:34;8.65;;;6.45;;
74926;SDS011;63488;48.092;-1.640;2023-04-03T09:48:07;8.50;;;6.05;;
74926;SDS011;63488;48.092;-1.640;2023-04-03T09:50:33;7.60;;;6.25;;
74926;SDS011;63488;48.092;-1.640;2023-04-03T09:53:00;7.75;;;6.60;;
74926;SDS011;63488;48.092;-1.640;2023-04-03T09:55:29;10.15;;;6.50;;
74926;SDS011;63488;48.092;-1.640;2023-04-03T09:57:58;9.57;;;7.25;;
74926;SDS011;63488;48.092;-1.640;2023-04-03T10:02:51;9.52;;;6.88;;
74926;SDS011;63488;48.092;-1.640;2023-04-03T10:05:35;8.48;;;6.40;;
74926;SDS011;63488;48.092;-1.640;2023-04-03T10:10:38;8.32;;;6.82;;
74926;SDS011;63488;48.092;-1.640;2023-04-03T10:13:07;8.85;;;7.50;;
74926;SDS011;63488;48.092;-1.640;2023-04-03T10:15:45;8.20;;;6.82;;
74926;SDS011;63488;48.092;-1.640;2023-04-03T10:20:57;9.65;;;6.60;;
74926;SDS011;63488;48.092;-1.640;2023-04-03T10:23:26;8.40;;;6.18;;
74926;SDS011;63488;48.092;-1.640;2023-04-03T10:33:51;8.93;;;6.80;;
74926;SDS011;63488;48.092;-1.640;2023-04-03T10:43:54;8.68;;;7.40;;
74926;SDS011;63488;48.092;-1.640;2023-04-03T10:46:23;9.52;;;7.70;;
74926;SDS011;63488;48.092;-1.640;2023-04-03T10:48:57;8.95;;;7.47;;
74926;SDS011;63488;48.092;-1.640;2023-04-03T10:57:03;7.80;;;6.75;;
74926;SDS011;63488;48.092;-1.640;2023-04-03T10:59:08;7.90;;;7.10;;
74926;SDS011;63488;48.092;-1.640;2023-04-03T11:01:39;8.52;;;7.13;;
74926;SDS011;63488;48.092;-1.640;2023-04-03T11:04:06;8.50;;;7.32;;
74926;SDS011;63488;48.092;-1.640;2023-04-03T11:06:34;8.38;;;6.97;;
74926;SDS011;63488;48.092;-1.640;2023-04-03T11:09:03;8.60;;;7.45;;
74926;SDS011;63488;48.092;-1.640;2023-04-03T11:16:27;10.15;;;7.60;;
74926;SDS011;63488;48.092;-1.640;2023-04-03T11:21:38;8.70;;;7.80;;
74926;SDS011;63488;48.092;-1.640;2023-04-03T11:24:13;7.63;;;6.55;;
74926;SDS011;63488;48.092;-1.640;2023-04-03T11:26:41;7.47;;;6.40;;
74926;SDS011;63488;48.092;-1.640;2023-04-03T11:29:13;8.75;;;7.15;;
74926;SDS011;63488;48.092;-1.640;2023-04-03T11:37:11;7.55;;;6.60;;
74926;SDS011;63488;48.092;-1.640;2023-04-03T11:39:38;8.32;;;6.93;;
74926;SDS011;63488;48.092;-1.640;2023-04-03T11:44:39;8.52;;;7.60;;
74926;SDS011;63488;48.092;-1.640;2023-04-03T11:47:05;7.70;;;6.90;;
74926;SDS011;63488;48.092;-1.640;2023-04-03T11:55:01;7.30;;;6.05;;
74926;SDS011;63488;48.092;-1.640;2023-04-03T11:57:45;8.15;;;7.35;;
74926;SDS011;63488;48.092;-1.640;2023-04-03T12:00:54;7.28;;;5.85;;
74926;SDS011;63488;48.092;-1.640;2023-04-03T12:02:59;7.88;;;6.10;;
74926;SDS011;63488;48.092;-1.640;2023-04-03T12:05:26;7.80;;;5.82;;
74926;SDS011;63488;48.092;-1.640;2023-04-03T12:10:37;9.02;;;7.05;;
74926;SDS011;63488;48.092;-1.640;2023-04-03T12:13:12;7.10;;;6.40;;
74926;SDS011;63488;48.092;-1.640;2023-04-03T12:15:49;8.40;;;6.75;;
74926;SDS011;63488;48.092;-1.640;2023-04-03T12:20:59;7.72;;;6.45;;
74926;SDS011;63488;48.092;-1.640;2023-04-03T12:23:25;6.82;;;5.72;;
74926;SDS011;63488;48.092;-1.640;2023-04-03T12:25:51;8.10;;;6.32;;
74926;SDS011;63488;48.092;-1.640;2023-04-03T12:28:16;7.22;;;5.82;;
74926;SDS011;63488;48.092;-1.640;2023-04-03T12:30:42;7.30;;;6.25;;
74926;SDS011;63488;48.092;-1.640;2023-04-03T12:33:27;8.48;;;6.18;;
74926;SDS011;63488;48.092;-1.640;2023-04-03T12:36:07;8.00;;;6.03;;
74926;SDS011;63488;48.092;-1.640;2023-04-03T12:38:37;6.72;;;6.03;;
74926;SDS011;63488;48.092;-1.640;2023-04-03T12:46:38;6.95;;;5.40;;
74926;SDS011;63488;48.092;-1.640;2023-04-03T12:49:12;7.45;;;5.78;;
74926;SDS011;63488;48.092;-1.640;2023-04-03T12:51:43;6.45;;;5.53;;
74926;SDS011;63488;48.092;-1.640;2023-04-03T12:56:34;8.90;;;6.33;;
74926;SDS011;63488;48.092;-1.640;2023-04-03T12:59:14;7.40;;;5.60;;
74926;SDS011;63488;48.092;-1.640;2023-04-03T13:04:06;6.00;;;4.97;;
74926;SDS011;63488;48.092;-1.640;2023-04-03T13:06:34;7.95;;;5.80;;
74926;SDS011;63488;48.092;-1.640;2023-04-03T13:09:00;5.43;;;4.90;;
74926;SDS011;63488;48.092;-1.640;2023-04-03T13:11:36;7.35;;;5.75;;
74926;SDS011;63488;48.092;-1.640;2023-04-03T13:14:04;5.50;;;4.88;;
74926;SDS011;63488;48.092;-1.640;2023-04-03T13:16:30;6.25;;;5.28;;
74926;SDS011;63488;48.092;-1.640;2023-04-03T13:18:57;6.68;;;5.68;;
74926;SDS011;63488;48.092;-1.640;2023-04-03T13:21:24;7.22;;;5.72;;
74926;SDS011;63488;48.092;-1.640;2023-04-03T13:23:51;6.93;;;6.20;;
74926;SDS011;63488;48.092;-1.640;2023-04-03T13:26:17;9.07;;;6.22;;
74926;SDS011;63488;48.092;-1.640;2023-04-03T13:28:44;7.38;;;5.60;;
74926;SDS011;63488;48.092;-1.640;2023-04-03T13:33:39;6.00;;;4.93;;
74926;SDS011;63488;48.092;-1.640;2023-04-03T13:36:16;6.90;;;5.28;;
74926;SDS011;63488;48.092;-1.640;2023-04-03T13:38:42;7.97;;;5.38;;
74926;SDS011;63488;48.092;-1.640;2023-04-03T13:46:45;6.35;;;4.85;;
74926;SDS011;63488;48.092;-1.640;2023-04-03T13:49:28;5.55;;;4.95;;
74926;SDS011;63488;48.092;-1.640;2023-04-03T13:51:54;5.82;;;5.22;;
74926;SDS011;63488;48.092;-1.640;2023-04-03T13:54:29;6.43;;;5.05;;
74926;SDS011;63488;48.092;-1.640;2023-04-03T13:56:56;8.10;;;5.53;;
74926;SDS011;63488;48.092;-1.640;2023-04-03T13:59:31;5.25;;;4.57;;
74926;SDS011;63488;48.092;-1.640;2023-04-03T14:04:23;6.03;;;5.00;;
74926;SDS011;63488;48.092;-1.640;2023-04-03T14:06:49;6.57;;;5.20;;
74926;SDS011;63488;48.092;-1.640;2023-04-03T14:09:16;5.80;;;4.65;;
74926;SDS011;63488;48.092;-1.640;2023-04-03T14:11:41;5.65;;;5.07;;
74926;SDS011;63488;48.092;-1.640;2023-04-03T14:14:41;7.13;;;5.30;;
74926;SDS011;63488;48.092;-1.640;2023-04-03T14:17:00;6.97;;;5.78;;
74926;SDS011;63488;48.092;-1.640;2023-04-03T14:19:30;7.13;;;5.03;;
74926;SDS011;63488;48.092;-1.640;2023-04-03T14:21:57;5.97;;;4.75;;
74926;SDS011;63488;48.092;-1.640;2023-04-03T14:24:22;6.72;;;4.93;;
74926;SDS011;63488;48.092;-1.640;2023-04-03T14:26:48;5.43;;;4.68;;
74926;SDS011;63488;48.092;-1.640;2023-04-03T14:29:14;4.60;;;4.10;;
74926;SDS011;63488;48.092;-1.640;2023-04-03T14:31:41;5.35;;;4.50;;
74926;SDS011;63488;48.092;-1.640;2023-04-03T14:34:06;5.82;;;5.25;;
74926;SDS011;63488;48.092;-1.640;2023-04-03T14:36:31;6.80;;;4.85;;
74926;SDS011;63488;48.092;-1.640;2023-04-03T14:38:57;5.85;;;5.10;;
74926;SDS011;63488;48.092;-1.640;2023-04-03T14:41:23;5.70;;;4.97;;
74926;SDS011;63488;48.092;-1.640;2023-04-03T14:43:49;6.65;;;4.72;;
74926;SDS011;63488;48.092;-1.640;2023-04-03T14:48:56;4.55;;;4.07;;
74926;SDS011;63488;48.092;-1.640;2023-04-03T14:51:22;5.60;;;4.97;;
74926;SDS011;63488;48.092;-1.640;2023-04-03T14:53:47;5.43;;;4.88;;
74926;SDS011;63488;48.092;-1.640;2023-04-03T14:56:16;4.97;;;4.18;;
74926;SDS011;63488;48.092;-1.640;2023-04-03T14:58:42;5.97;;;4.88;;
74926;SDS011;63488;48.092;-1.640;2023-04-03T15:01:09;6.63;;;4.60;;
74926;SDS011;63488;48.092;-1.640;2023-04-03T15:03:35;5.32;;;4.80;;
74926;SDS011;63488;48.092;-1.640;2023-04-03T15:06:00;5.65;;;4.13;;
74926;SDS011;63488;48.092;-1.640;2023-04-03T15:08:27;6.05;;;4.32;;
74926;SDS011;63488;48.092;-1.640;2023-04-03T15:10:54;6.60;;;5.30;;
74926;SDS011;63488;48.092;-1.640;2023-04-03T15:13:21;6.47;;;4.47;;
74926;SDS011;63488;48.092;-1.640;2023-04-03T15:15:46;7.07;;;4.60;;
74926;SDS011;63488;48.092;-1.640;2023-04-03T15:18:17;5.70;;;4.43;;
74926;SDS011;63488;48.092;-1.640;2023-04-03T15:20:42;6.35;;;4.65;;
74926;SDS011;63488;48.092;-1.640;2023-04-03T15:23:08;5.43;;;4.38;;
74926;SDS011;63488;48.092;-1.640;2023-04-03T15:25:34;5.32;;;4.53;;
74926;SDS011;63488;48.092;-1.640;2023-04-03T15:27:59;4.80;;;4.30;;
74926;SDS011;63488;48.092;-1.640;2023-04-03T15:30:25;6.35;;;4.70;;
74926;SDS011;63488;48.092;-1.640;2023-04-03T15:32:50;5.68;;;4.45;;
74926;SDS011;63488;48.092;-1.640;2023-04-03T15:35:16;5.78;;;4.45;;
74926;SDS011;63488;48.092;-1.640;2023-04-03T15:37:41;5.00;;;4.05;;
74926;SDS011;63488;48.092;-1.640;2023-04-03T15:40:07;4.95;;;4.20;;
74926;SDS011;63488;48.092;-1.640;2023-04-03T15:42:32;4.47;;;3.85;;
74926;SDS011;63488;48.092;-1.640;2023-04-03T15:44:58;5.95;;;3.88;;
74926;SDS011;63488;48.092;-1.640;2023-04-03T15:47:24;4.78;;;4.05;;
74926;SDS011;63488;48.092;-1.640;2023-04-03T15:49:49;4.68;;;3.70;;
74926;SDS011;63488;48.092;-1.640;2023-04-03T15:52:15;4.53;;;3.80;;
74926;SDS011;63488;48.092;-1.640;2023-04-03T15:54:40;4.68;;;3.92;;
74926;SDS011;63488;48.092;-1.640;2023-04-03T15:57:05;3.78;;;3.15;;
74926;SDS011;63488;48.092;-1.640;2023-04-03T15:59:31;4.43;;;3.03;;
74926;SDS011;63488;48.092;-1.640;2023-04-03T16:01:57;4.82;;;4.03;;
74926;SDS011;63488;48.092;-1.640;2023-04-03T16:04:23;3.70;;;3.40;;
74926;SDS011;63488;48.092;-1.640;2023-04-03T16:06:49;3.85;;;3.45;;
74926;SDS011;63488;48.092;-1.640;2023-04-03T16:09:14;4.72;;;3.78;;
74926;SDS011;63488;48.092;-1.640;2023-04-03T16:11:40;5.15;;;3.67;;
74926;SDS011;63488;48.092;-1.640;2023-04-03T16:14:08;4.80;;;3.80;;
74926;SDS011;63488;48.092;-1.640;2023-04-03T16:16:33;5.82;;;3.60;;